• Join FlightAware (Why Join?)
  • Login
  • US Flag 
08:08PM EST


 

Airport Tracker/Info


-or-


 

Live Flight TrackerFlight Track Log ✈ N200PZ ✈ 09-May-2013 ✈ KLRD - KFCM

Flight Track Log - Related Links

Times and Time Zones

All times are in EDT time to prevent confusion due to time zone crossing. See the N200PZ flight status page for this flight to view local times or setup timezone preferences in your user account.

Time Position Orientation Groundspeed Altitude Reporting Facility
EDT Latitude Longitude Course Direction KTS MPH feet Rate Location/Type
09:02PM 27.5275 -99.4061 79° East 148 170 3,300  Level Houston Center
09:03PM 27.5661 -99.3839 27° Northeast 154 177 5,100 1,500 Climbing Houston Center
09:04PM 27.6100 -99.3622 24° Northeast 160 184 6,500 1,500 Climbing Houston Center
09:05PM 27.9478 -99.2594 24° Northeast  Level FlightAware Approximate
09:05PM 27.6686 -99.3381 20° North 175 201 8,300  Level Houston Center
09:06PM 28.0163 -99.2252 24° Northeast  Level FlightAware Approximate
09:06PM 27.7181 -99.3142 23° Northeast 184 212 9,600  Level Houston Center
09:07PM 27.7697 -99.2889 23° Northeast 194 223 11,000 1,080 Climbing Houston Center
09:08PM 27.8206 -99.2617 25° Northeast 199 229 11,900 480 Climbing Houston Center
09:09PM 27.8817 -99.2311 24° Northeast 226 260 12,100 60 Climbing Houston Center
09:10PM 27.9481 -99.1994 23° Northeast 248 285 12,100 300 Level Houston Center
09:11PM 28.0122 -99.1722 21° North 248 285 12,800 840 Climbing Houston Center
09:12PM 28.0828 -99.1364 24° Northeast 234 269 13,900 840 Climbing Houston Center
09:13PM 28.1428 -99.1131 19° North 229 264 14,600 720 Climbing Houston Center
09:14PM 28.2025 -99.0869 21° North 230 265 15,500 780 Climbing Houston Center
09:15PM 28.2622 -99.0633 19° North 228 262 16,300 780 Climbing Houston Center
09:16PM 28.3208 -99.0378 21° North 226 260 17,200 600 Climbing Houston Center
09:17PM 28.3797 -99.0136 20° North 225 259 17,600 540 Climbing Houston Center
09:19PM 28.4519 -98.9797 22° Northeast 231 266 18,400 600 Climbing Houston Center
09:20PM 28.5114 -98.9556 20° North 228 262 18,900 660 Climbing Houston Center
09:21PM 28.5689 -98.9275 23° Northeast 225 259 19,800 720 Climbing Houston Center
09:22PM 28.6239 -98.9028 22° Northeast 214 246 20,500 720 Climbing Houston Center
09:23PM 28.6881 -98.8714 23° Northeast 219 252 21,300 660 Climbing Houston Center
09:24PM 28.7422 -98.8453 23° Northeast 210 242 21,900 480 Climbing Houston Center
09:25PM 28.8003 -98.8208 20° North 204 235 22,400 480 Climbing Houston Center
09:26PM 28.8550 -98.8003 18° North 209 241 23,000 600 Climbing Houston Center
09:27PM 28.9169 -98.7731 21° North 220 253 23,700 660 Climbing Houston Center
09:28PM 28.9747 -98.7486 20° North 223 257 24,400 480 Climbing Houston Center
09:29PM 29.0347 -98.7261 18° North 228 262 24,800 480 Climbing Houston Center
09:30PM 29.0992 -98.7014 19° North 228 262 25,400 600 Climbing Houston Center
09:31PM 29.1586 -98.6775 19° North 227 261 26,100 480 Climbing Houston Center
09:32PM 29.2183 -98.6481 23° Northeast 234 269 26,500 360 Climbing Houston Center
09:33PM 29.2842 -98.6147 24° Northeast 240 276 26,900 240 Climbing Houston Center
09:34PM 29.3483 -98.5872 20° North 245 282 27,000 60 Climbing Houston Center
09:35PM 29.4217 -98.5531 22° Northeast 262 302 27,100  Climbing Houston Center
09:36PM 29.4936 -98.5211 21° North 274 315 27,100 240 Level Houston Center
09:37PM 29.5592 -98.4914 22° Northeast 278 320 27,600 420 Climbing Houston Center
09:38PM 29.6250 -98.4642 20° North 260 299 28,000 180 Climbing Houston Center
09:39PM 29.7056 -98.4278 21° North 259 298 28,000  Level Houston Center
09:40PM 29.7742 -98.3781 32° Northeast 286 329 28,000  Level Houston Center
09:41PM 29.8425 -98.3308 31° Northeast 287 330 28,000  Level Houston Center
09:42PM 29.9178 -98.2825 29° Northeast 287 330 28,000  Level Houston Center
09:43PM 29.9875 -98.2358 30° Northeast 287 330 28,000  Level Houston Center
09:44PM 30.0547 -98.1867 32° Northeast 288 331 28,000  Level Houston Center
09:45PM 30.1297 -98.1358 30° Northeast 292 336 28,000  Level Houston Center
09:46PM 30.1983 -98.0892 30° Northeast 288 331 28,000  Level Houston Center
09:47PM 30.2772 -98.0481 24° Northeast 286 329 28,000  Level Houston Center
09:48PM 30.3464 -98.0025 30° Northeast 297 342 28,000  Level Houston Center
09:49PM 30.4131 -97.9392 39° Northeast 306 352 28,000  Level Houston Center
09:50PM 30.4786 -97.8733 41° Northeast 306 352 28,000  Level Houston Center
09:51PM 30.5481 -97.8106 38° Northeast 313 360 28,000  Level Houston Center
09:52PM 30.6158 -97.7472 39° Northeast 309 356 28,000  Level Houston Center
09:54PM 30.6858 -97.6903 35° Northeast 305 351 28,000  Level Houston Center
09:55PM 30.7572 -97.6419 30° Northeast 294 338 28,000  Level Houston Center
09:56PM 30.8308 -97.6086 21° North 282 325 28,000  Level Houston Center
09:57PM 30.9061 -97.5847 15° North 276 318 28,000  Level Houston Center
09:57PM 30.9711 -97.5708 10° North 277 319 28,000  Level Fort Worth Center
09:58PM 31.0442 -97.5539 11° North 277 319 28,000  Level Fort Worth Center
09:59PM 31.1172 -97.5369 11° North 272 313 28,000  Level Fort Worth Center
10:00PM 31.1839 -97.5250 North 272 313 28,000  Level Fort Worth Center
10:01PM 31.2550 -97.5106 10° North 266 306 28,000  Level Fort Worth Center
10:02PM 31.3261 -97.4983 North 256 295 28,000  Level Fort Worth Center
10:03PM 31.3928 -97.4936 North 248 285 28,000  Level Fort Worth Center
10:04PM 31.4597 -97.4792 10° North 242 278 28,000  Level Fort Worth Center
10:05PM 31.5306 -97.4622 12° North 231 266 28,000  Level Fort Worth Center
10:06PM 31.5892 -97.4475 12° North 231 266 28,000  Level Fort Worth Center
10:07PM 31.6539 -97.4328 11° North 231 266 28,000  Level Fort Worth Center
10:08PM 31.7228 -97.4206 North 236 272 28,000  Level Fort Worth Center
10:09PM 31.7894 -97.4061 10° North 236 272 28,000  Level Fort Worth Center
10:10PM 31.8522 -97.3914 11° North 236 272 28,000  Level Fort Worth Center
10:11PM 31.9189 -97.3742 12° North 236 272 28,000  Level Fort Worth Center
10:12PM 31.9836 -97.3594 11° North 236 272 28,000 -120 Level Fort Worth Center
10:13PM 32.0483 -97.3422 13° North 241 277 27,800 -300 Descending Fort Worth Center
10:14PM 32.1214 -97.3203 14° North 241 277 27,500 -240 Descending Fort Worth Center
10:15PM 32.1903 -97.3006 14° North 241 277 27,400 -180 Descending Fort Worth Center
10:16PM 32.2592 -97.2808 14° North 247 284 27,200 -240 Descending Fort Worth Center
10:17PM 32.3303 -97.2658 10° North 253 291 27,000 -120 Descending Fort Worth Center
10:18PM 32.4033 -97.2486 11° North 260 299 27,000  Level Fort Worth Center
10:19PM 32.4761 -97.2311 11° North 260 299 27,000  Level Fort Worth Center
10:20PM 32.5450 -97.2139 12° North 260 299 27,000  Level Fort Worth Center
10:21PM 32.6181 -97.1989 10° North 260 299 27,000  Level Fort Worth Center
10:22PM 32.6911 -97.1839 10° North 260 299 27,000  Level Fort Worth Center
10:23PM 32.7622 -97.1689 10° North 260 299 27,000  Level Fort Worth Center
10:24PM 32.8331 -97.1539 10° North 260 299 27,000  Level Fort Worth Center
10:25PM 32.9061 -97.1339 13° North 260 299 27,000  Level Fort Worth Center
10:26PM 32.9769 -97.1139 13° North 260 299 27,000  Level Fort Worth Center
10:27PM 33.0500 -97.0886 16° North 260 299 27,000  Level Fort Worth Center
10:28PM 33.1231 -97.0711 11° North 260 299 27,000  Level Fort Worth Center
10:29PM 33.1961 -97.0486 14° North 260 299 27,000  Level Fort Worth Center
10:30PM 33.2669 -97.0408 North 260 299 27,000  Level Fort Worth Center
10:31PM 33.3422 -97.0528 352° North 260 299 27,000  Level Fort Worth Center
10:32PM 33.4131 -97.0675 350° North 254 292 27,000  Level Fort Worth Center
10:33PM 33.4822 -97.0847 348° North 254 292 27,000  Level Fort Worth Center
10:34PM 33.5489 -97.1044 346° North 254 292 27,000  Level Fort Worth Center
10:35PM 33.6158 -97.1242 346° North 248 285 27,000  Level Fort Worth Center
10:36PM 33.6764 -97.1414 347° North 248 285 27,000  Level Fort Worth Center
10:37PM 33.7517 -97.1636 346° North 248 285 27,000  Level Fort Worth Center
10:38PM 33.8206 -97.1883 343° North 248 285 27,000  Level Fort Worth Center
10:39PM 33.8872 -97.2083 346° North 248 285 27,000  Level Fort Worth Center
10:40PM 33.9561 -97.2308 345° North 248 285 27,000  Level Fort Worth Center
10:41PM 34.0250 -97.2481 348° North 248 285 27,000 60 Level Fort Worth Center
10:42PM 34.0961 -97.2706 345° North 248 285 27,200 300 Climbing Fort Worth Center
10:43PM 34.1650 -97.2881 348° North 248 285 27,600 360 Climbing Fort Worth Center
10:44PM 34.2275 -97.3006 351° North 242 278 28,000 180 Climbing Fort Worth Center
10:45PM 34.2964 -97.3206 347° North 242 278 28,000  Level Fort Worth Center
10:46PM 34.3631 -97.3381 348° North 242 278 28,000  Level Fort Worth Center
10:47PM 34.4319 -97.3556 348° North 242 278 28,000  Level Fort Worth Center
10:48PM 34.5031 -97.3733 348° North 247 284 28,000  Level Fort Worth Center
10:49PM 34.5719 -97.3958 345° North 247 284 28,000  Level Fort Worth Center
10:50PM 34.6428 -97.4136 348° North 253 291 28,000  Level Fort Worth Center
10:51PM 34.7117 -97.4336 347° North 253 291 28,000  Level Fort Worth Center
10:52PM 34.7783 -97.4567 344° North 253 291 28,000  Level Fort Worth Center
10:53PM 34.8472 -97.4742 348° North 253 291 28,000  Level Fort Worth Center
10:54PM 34.9139 -97.4944 346° North 253 291 28,000  Level Fort Worth Center
10:55PM 34.9808 -97.5150 346° North 248 285 28,000  Level Fort Worth Center
10:57PM 35.0906 -97.5411 349° North 247 284 28,000  Level Kansas City Center
10:58PM 35.1558 -97.5617 346° North 243 280 28,000  Level Kansas City Center
10:59PM 35.2244 -97.5728 352° North 245 282 28,000  Level Kansas City Center
11:00PM 35.2933 -97.5842 352° North 248 285 28,000  Level Kansas City Center
11:01PM 35.3603 -97.6008 349° North 244 281 28,000  Level Kansas City Center
11:02PM 35.4275 -97.5747 18° North 251 289 28,000  Level Kansas City Center
11:03PM 35.4961 -97.5539 14° North 251 289 28,000  Level Kansas City Center
11:04PM 35.5628 -97.5314 15° North 247 284 28,000  Level Kansas City Center
11:05PM 35.6275 -97.5036 19° North 246 283 28,000 -240 Level Kansas City Center
11:06PM 35.6950 -97.4756 19° North 251 289 27,600 -420 Descending Kansas City Center
11:07PM 35.7686 -97.4481 17° North 267 307 27,200 -300 Descending Kansas City Center
11:08PM 35.8586 -97.4214 14° North 277 319 27,000 -120 Descending Kansas City Center
11:09PM 35.9319 -97.3903 19° North 278 320 27,000  Level Kansas City Center
11:10PM 36.0042 -97.3522 23° Northeast 280 322 27,000  Level Kansas City Center
11:11PM 36.0764 -97.3192 20° North 276 318 27,000  Level Kansas City Center
11:12PM 36.1464 -97.2942 16° North 266 306 27,000  Level Kansas City Center
11:13PM 36.2181 -97.2678 17° North 268 308 27,000  Level Kansas City Center
11:14PM 36.2886 -97.2308 23° Northeast 273 314 27,000  Level Kansas City Center
11:15PM 36.3572 -97.2033 18° North 264 304 27,000  Level Kansas City Center
11:16PM 36.4269 -97.1847 12° North 258 297 27,000  Level Kansas City Center
11:17PM 36.4978 -97.1594 16° North 261 300 27,000  Level Kansas City Center
11:18PM 36.5661 -97.1311 18° North 260 299 27,000  Level Kansas City Center
11:19PM 36.6492 -97.1033 15° North 257 296 27,000  Level Kansas City Center
11:20PM 36.7092 -97.0753 21° North 258 297 27,000  Level Kansas City Center
11:21PM 36.7775 -97.0481 18° North 257 296 27,000  Level Kansas City Center
11:22PM 36.8486 -97.0208 17° North 262 302 27,000  Level Kansas City Center
11:23PM 36.9211 -96.9981 14° North 266 306 27,000  Level Kansas City Center
11:25PM 36.9900 -96.9686 19° North 264 304 27,000  Level Kansas City Center
11:26PM 37.0728 -96.9361 17° North 262 302 27,000  Level Kansas City Center
11:27PM 37.1406 -96.9083 18° North 259 298 27,000  Level Kansas City Center
11:28PM 37.2094 -96.8811 17° North 259 298 27,000  Level Kansas City Center
11:29PM 37.2806 -96.8519 18° North 261 300 27,000  Level Kansas City Center
11:30PM 37.3478 -96.8256 17° North 261 300 27,000  Level Kansas City Center
11:31PM 37.4217 -96.7958 18° North 278 320 27,000  Level Kansas City Center
11:32PM 37.4903 -96.7664 19° North 265 305 27,000  Level Kansas City Center
11:33PM 37.5581 -96.7414 16° North 259 298 27,000  Level Kansas City Center
11:34PM 37.6286 -96.7117 18° North 263 303 27,000  Level Kansas City Center
11:35PM 37.7050 -96.6839 16° North 276 318 27,000  Level Kansas City Center
11:36PM 37.7903 -96.6450 20° North 271 312 27,000  Level Kansas City Center
11:37PM 37.8628 -96.6181 16° North 271 312 27,000  Level Kansas City Center
11:38PM 37.9347 -96.5878 18° North 272 313 27,000  Level Kansas City Center
11:39PM 38.0061 -96.5606 17° North 269 310 27,000  Level Kansas City Center
11:40PM 38.0778 -96.5294 19° North 272 313 27,000  Level Kansas City Center
11:41PM 38.1500 -96.5028 16° North 270 311 27,000  Level Kansas City Center
11:42PM 38.2217 -96.4714 19° North 272 313 27,000  Level Kansas City Center
11:43PM 38.2994 -96.4428 16° North 273 314 27,000  Level Kansas City Center
11:44PM 38.3678 -96.4117 20° North 273 314 27,000  Level Kansas City Center
11:45PM 38.4481 -96.3797 17° North 270 311 27,000  Level Kansas City Center
11:46PM 38.5181 -96.3500 18° North 274 315 27,000  Level Kansas City Center
11:47PM 38.5872 -96.3231 17° North 271 312 27,000  Level Kansas City Center
11:48PM 38.6681 -96.2886 18° North 273 314 27,000  Level Kansas City Center
11:49PM 38.7361 -96.2600 18° North 268 308 27,000  Level Kansas City Center
11:50PM 38.8017 -96.2275 21° North 266 306 27,000  Level Kansas City Center
11:51PM 38.8825 -96.1972 16° North 267 307 27,000  Level Kansas City Center
11:52PM 38.9503 -96.1669 19° North 269 310 27,000  Level Kansas City Center
11:53PM 39.0303 -96.1353 17° North 267 307 27,000  Level Kansas City Center
11:54PM 39.0983 -96.1078 17° North 267 307 27,000  Level Kansas City Center
11:55PM 39.1644 -96.0789 19° North 262 302 27,000  Level Kansas City Center
11:56PM 39.2425 -96.0469 18° North 262 302 27,000  Level Kansas City Center
11:57PM 39.3081 -96.0183 19° North 260 299 27,000  Level Kansas City Center
11:58PM 39.3742 -95.9908 18° North 260 299 27,000  Level Kansas City Center
11:59PM 39.4500 -95.9569 19° North 258 297 27,000  Level Kansas City Center
12:00AM 39.5161 -95.9300 17° North 258 297 27,000  Level Kansas City Center
12:01AM 39.5819 -95.9008 19° North 260 299 27,000  Level Kansas City Center
12:02AM 39.6586 -95.8700 17° North 257 296 27,000  Level Kansas City Center
12:03AM 39.7236 -95.8408 19° North 259 298 27,000  Level Kansas City Center
12:04AM 39.7894 -95.8122 18° North 258 297 27,000  Level Kansas City Center
12:05AM 39.8664 -95.7778 19° North 261 300 27,000  Level Kansas City Center
12:06AM 39.9314 -95.7506 18° North 258 297 27,000  Level Kansas City Center
12:07AM 39.9628 -95.7367 19° North 257 296 27,000  Level Minneapolis Center
12:08AM 40.0297 -95.7072 19° North 256 295 27,000  Level Minneapolis Center
12:09AM 40.0986 -95.6792 17° North 257 296 27,000  Level Minneapolis Center
12:10AM 40.1664 -95.6508 18° North 256 295 27,000  Level Minneapolis Center
12:11AM 40.2336 -95.6214 18° North 256 295 27,000  Level Minneapolis Center
12:12AM 40.3017 -95.5911 19° North 256 295 27,000  Level Minneapolis Center
12:13AM 40.3675 -95.5622 18° North 254 292 27,000  Level Minneapolis Center
12:14AM 40.4489 -95.5250 19° North 256 295 27,000  Level Minneapolis Center
12:15AM 40.5161 -95.4944 19° North 256 295 27,000  Level Minneapolis Center
12:16AM 40.5836 -95.4661 18° North 256 295 27,000  Level Minneapolis Center
12:17AM 40.6506 -95.4350 19° North 254 292 27,000  Level Minneapolis Center
12:18AM 40.7192 -95.4075 17° North 258 297 27,000  Level Minneapolis Center
12:19AM 40.7861 -95.3756 20° North 256 295 27,000  Level Minneapolis Center
12:20AM 40.8544 -95.3486 17° North 257 296 27,000  Level Minneapolis Center
12:21AM 40.9342 -95.3103 20° North 255 293 27,000  Level Minneapolis Center
12:22AM 41.0008 -95.2819 18° North 253 291 27,000  Level Minneapolis Center
12:23AM 41.0667 -95.2525 19° North 251 289 27,000  Level Minneapolis Center
12:24AM 41.1319 -95.2233 19° North 250 288 27,000  Level Minneapolis Center
12:25AM 41.1969 -95.1947 18° North 247 284 27,000  Level Minneapolis Center
12:26AM 41.2617 -95.1653 19° North 247 284 27,000  Level Minneapolis Center
12:27AM 41.3267 -95.1361 19° North 247 284 27,000  Level Minneapolis Center
12:28AM 41.3919 -95.1058 19° North 249 287 27,000  Level Minneapolis Center
12:29AM 41.4581 -95.0775 18° North 251 289 27,000  Level Minneapolis Center
12:30AM 41.5233 -95.0461 20° North 249 287 27,000  Level Minneapolis Center
12:31AM 41.5903 -95.0178 18° North 252 290 27,000  Level Minneapolis Center
12:32AM 41.6553 -94.9869 20° North 251 289 27,000  Level Minneapolis Center
12:33AM 41.7200 -94.9592 18° North 246 283 27,000  Level Minneapolis Center
12:34AM 41.7861 -94.9269 20° North 250 288 27,000  Level Minneapolis Center
12:35AM 41.8500 -94.8975 19° North 245 282 27,000  Level Minneapolis Center
12:36AM 41.9275 -94.8611 19° North 245 282 27,000  Level Minneapolis Center
12:37AM 41.9936 -94.8317 18° North 248 285 27,000  Level Minneapolis Center
12:38AM 42.0586 -94.8008 19° North 249 287 27,000  Level Minneapolis Center
12:39AM 42.1236 -94.7706 19° North 250 288 27,000  Level Minneapolis Center
12:40AM 42.1894 -94.7394 19° North 250 288 27,000  Level Minneapolis Center
12:41AM 42.2550 -94.7092 19° North 251 289 27,000  Level Minneapolis Center
12:42AM 42.3200 -94.6800 18° North 247 284 27,000  Level Minneapolis Center
12:43AM 42.3842 -94.6486 20° North 247 284 27,000  Level Minneapolis Center
12:44AM 42.4497 -94.6200 18° North 247 284 27,000  Level Minneapolis Center
12:45AM 42.5106 -94.5886 21° North 249 287 27,000  Level Minneapolis Center
12:46AM 42.5756 -94.5583 19° North 248 285 27,000  Level Minneapolis Center
12:47AM 42.6389 -94.5275 20° North 245 282 27,000  Level Minneapolis Center
12:48AM 42.7061 -94.4983 18° North 251 289 27,000  Level Minneapolis Center
12:49AM 42.7711 -94.4661 20° North 251 289 27,000  Level Minneapolis Center
12:50AM 42.8503 -94.4311 18° North 251 289 27,000  Level Minneapolis Center
12:51AM 42.9142 -94.3981 21° North 249 287 27,000  Level Minneapolis Center
12:52AM 42.9800 -94.3703 17° North 247 284 27,000  Level Minneapolis Center
12:53AM 43.0439 -94.3367 21° North 251 289 27,000  Level Minneapolis Center
12:54AM 43.1083 -94.3092 17° North 247 284 27,000  Level Minneapolis Center
12:55AM 43.1731 -94.2758 21° North 247 284 27,000 -180 Level Minneapolis Center
12:56AM 43.2425 -94.2447 18° North 249 287 26,700 -780 Descending Minneapolis Center
12:57AM 43.3086 -94.2069 23° Northeast 263 303 25,500 -1,080 Descending Minneapolis Center
12:58AM 43.3828 -94.1739 18° North 275 316 24,600 -1,020 Descending Minneapolis Center
12:59AM 43.4550 -94.1389 19° North 277 319 23,500 -1,140 Descending Minneapolis Center
01:00AM 43.5267 -94.1056 19° North 275 316 22,400 -1,200 Descending Minneapolis Center
01:01AM 43.6008 -94.0681 20° North 270 311 21,100 -1,320 Descending Minneapolis Center
01:02AM 43.6719 -94.0358 18° North 270 311 19,800 -1,260 Descending Minneapolis Center
01:03AM 43.7411 -94.0022 19° North 267 307 18,600 -1,200 Descending Minneapolis Center
01:04AM 43.8097 -93.9689 19° North 264 304 17,500 -1,260 Descending Minneapolis Center
01:06AM 43.8903 -93.9269 21° North 260 299 16,100 -1,200 Descending Minneapolis Center
01:07AM 43.9569 -93.8939 20° North 255 293 15,100 -1,140 Descending Minneapolis Center
01:08AM 44.0222 -93.8619 19° North 252 290 13,900 -1,200 Descending Minneapolis Center
01:09AM 44.0864 -93.8303 20° North 246 283 12,800 -1,140 Descending Minneapolis Center
01:10AM 44.1497 -93.7967 21° North 244 281 11,700 -1,200 Descending Minneapolis Center
01:11AM 44.2136 -93.7681 18° North 242 278 10,500 -1,200 Descending Minneapolis Center
01:12AM 44.2767 -93.7356 20° North 242 278 9,400 -1,140 Descending Minneapolis Center
01:13AM 44.3383 -93.7078 18° North 234 269 8,300 -1,140 Descending Minneapolis Center
01:14AM 44.3989 -93.6758 21° North 233 268 7,200 -1,140 Descending Minneapolis Center
01:15AM 44.4567 -93.6464 20° North 221 254 6,100 -1,080 Descending Minneapolis Center
01:16AM 44.5272 -93.6133 18° North 221 254 4,800 -960 Descending Minneapolis Center
01:17AM 44.5842 -93.5883 17° North 213 245 4,100 -600 Descending Minneapolis Center
01:18AM 44.6422 -93.5642 16° North 215 247 3,600 -480 Descending Minneapolis Center
01:19AM 44.6986 -93.5464 13° North 207 238 3,200 -360 Descending Minneapolis Center
01:20AM 44.7492 -93.5344 10° North 186 214 2,900 -420 Descending Minneapolis Center
01:21AM 44.7836 -93.5292 North 125 144 2,400 -420 Descending Minneapolis Center
01:22AM 44.8144 -93.5261 North 111 128 2,100 -540 Descending Minneapolis Center
01:23AM 44.8328 -93.4978 48° Northeast 112 129 1,400 -600 Descending Minneapolis Center
01:24AM 44.8272 -93.4586 101° East 106 122 1,000 -420 Descending Minneapolis Center
01:26AM 44.8275 -93.4586 20° North  Level Estimated